createdAt,value
2022-11-28T00:04:14.409Z,5.96
2022-11-28T00:09:18.920Z,5.91
2022-11-28T00:14:23.052Z,5.87
2022-11-28T00:19:25.836Z,6.01
2022-11-28T00:24:28.624Z,6.02
2022-11-28T00:29:32.780Z,6.03
2022-11-28T00:34:35.630Z,6.20
2022-11-28T00:39:38.421Z,6.23
2022-11-28T00:44:42.700Z,6.27
2022-11-28T00:49:45.713Z,6.15
2022-11-28T00:54:48.496Z,6.11
2022-11-28T00:59:52.628Z,6.11
2022-11-28T01:04:55.376Z,5.96
2022-11-28T01:09:58.136Z,6.08
2022-11-28T01:15:02.231Z,6.01
2022-11-28T01:20:07.140Z,5.87
2022-11-28T01:25:09.972Z,5.87
2022-11-28T01:30:14.420Z,6.05
2022-11-28T01:35:17.318Z,6.09
2022-11-28T01:40:20.071Z,6.23
2022-11-28T01:45:26.685Z,6.24
2022-11-28T01:50:30.622Z,6.16
2022-11-28T01:55:38.781Z,6.22
2022-11-28T02:00:42.947Z,6.29
2022-11-28T02:05:46.777Z,6.22
2022-11-28T02:11:07.508Z,6.29
2022-11-28T02:16:31.742Z,6.32
2022-11-28T02:21:48.929Z,6.24
2022-11-28T02:27:09.194Z,6.26
2022-11-28T02:32:23.414Z,6.14
2022-11-28T02:37:35.755Z,5.93
2022-11-28T02:42:52.596Z,6.07
2022-11-28T02:48:02.836Z,6.11
2022-11-28T02:53:09.552Z,6.17
2022-11-28T02:58:13.361Z,6.20
2022-11-28T03:03:43.570Z,6.40
2022-11-28T03:08:58.189Z,6.33
2022-11-28T03:14:12.786Z,6.33
2022-11-28T03:19:23.143Z,6.40
2022-11-28T03:24:33.987Z,6.42
2022-11-28T03:29:42.597Z,6.45
2022-11-28T03:34:50.069Z,6.27
2022-11-28T03:39:59.552Z,6.09
2022-11-28T03:45:07.951Z,5.90
2022-11-28T03:50:16.898Z,5.81
2022-11-28T03:55:24.575Z,5.86
2022-11-28T04:00:27.579Z,5.64
2022-11-28T04:05:42.739Z,5.26
2022-11-28T04:10:49.955Z,5.00
2022-11-28T04:15:58.311Z,5.08
2022-11-28T04:21:10.056Z,5.01
2022-11-28T04:26:17.711Z,4.97
2022-11-28T04:31:24.296Z,5.14
2022-11-28T04:36:29.994Z,5.19
2022-11-28T04:41:36.106Z,5.15
2022-11-28T04:46:43.267Z,4.92
2022-11-28T04:51:53.819Z,4.87
2022-11-28T04:57:01.947Z,5.12
2022-11-28T05:02:06.827Z,5.18
2022-11-28T05:07:11.375Z,5.17
2022-11-28T05:12:14.218Z,5.06
2022-11-28T05:17:17.029Z,4.94
2022-11-28T05:22:21.163Z,4.92
2022-11-28T05:27:23.907Z,4.97
2022-11-28T05:32:26.683Z,5.10
2022-11-28T05:37:30.904Z,5.03
2022-11-28T05:42:34.383Z,5.16
2022-11-28T05:47:37.285Z,5.28
2022-11-28T05:52:41.382Z,5.34
2022-11-28T05:57:44.100Z,5.43
2022-11-28T06:02:46.883Z,5.45
2022-11-28T06:07:51.021Z,5.37
2022-11-28T06:12:53.791Z,5.37
2022-11-28T06:17:56.934Z,5.34
2022-11-28T06:23:01.019Z,5.27
2022-11-28T06:28:03.771Z,5.10
2022-11-28T06:33:06.548Z,4.91
2022-11-28T06:38:14.195Z,4.88
2022-11-28T06:43:17.314Z,4.80
2022-11-28T06:48:20.322Z,4.84
2022-11-28T06:53:28.655Z,4.66
2022-11-28T06:58:34.704Z,4.60
2022-11-28T07:03:37.763Z,4.34
2022-11-28T07:08:42.318Z,4.16
2022-11-28T07:13:46.611Z,4.15
2022-11-28T07:18:49.796Z,4.20
2022-11-28T07:23:54.236Z,4.10
2022-11-28T07:28:58.245Z,4.18
2022-11-28T07:34:04.175Z,3.94
2022-11-28T07:39:09.609Z,4.18
2022-11-28T07:44:13.010Z,4.25
2022-11-28T07:49:16.070Z,4.01
2022-11-28T07:54:20.208Z,4.17
2022-11-28T07:59:22.947Z,4.21
2022-11-28T08:04:25.745Z,4.43
2022-11-28T08:09:30.063Z,4.44
2022-11-28T08:14:32.853Z,4.79
2022-11-28T08:19:36.732Z,4.97
2022-11-28T08:24:41.089Z,5.03
2022-11-28T08:29:46.170Z,4.97
2022-11-28T08:34:52.056Z,4.90
2022-11-28T08:39:56.130Z,4.77
2022-11-28T08:44:58.894Z,4.58
2022-11-28T08:50:01.689Z,4.51
2022-11-28T08:55:06.528Z,4.36
2022-11-28T09:00:10.185Z,4.44
2022-11-28T09:05:12.920Z,4.55
2022-11-28T09:10:17.325Z,4.60
2022-11-28T09:15:20.128Z,4.53
2022-11-28T09:20:22.860Z,4.69
2022-11-28T09:25:26.979Z,4.56
2022-11-28T09:30:29.779Z,4.62
2022-11-28T09:35:32.585Z,4.75
2022-11-28T09:40:39.878Z,4.91
2022-11-28T09:45:43.508Z,4.89
2022-11-28T09:50:47.859Z,5.04
2022-11-28T09:55:55.600Z,5.06
2022-11-28T10:01:12.207Z,5.10
2022-11-28T10:06:21.471Z,5.02
2022-11-28T10:11:43.295Z,5.08
2022-11-28T10:16:56.316Z,5.02
2022-11-28T10:22:01.927Z,4.97
2022-11-28T10:27:07.657Z,5.01
2022-11-28T10:32:15.369Z,5.12
2022-11-28T10:37:23.279Z,5.09
2022-11-28T10:42:32.831Z,5.25
2022-11-28T10:47:54.799Z,5.21
2022-11-28T10:53:01.764Z,5.36
2022-11-28T10:58:13.789Z,5.29
2022-11-28T11:03:18.884Z,5.33
2022-11-28T11:08:23.541Z,5.56
2022-11-28T11:13:29.990Z,5.63
2022-11-28T11:18:36.126Z,5.67
2022-11-28T11:23:38.936Z,5.73
2022-11-28T11:28:46.048Z,5.75
2022-11-28T11:33:51.424Z,5.76
2022-11-28T11:39:06.960Z,5.76
2022-11-28T11:44:30.640Z,5.82
2022-11-28T11:49:35.188Z,5.75
2022-11-28T11:54:37.916Z,5.83
2022-11-28T11:59:46.802Z,5.85
2022-11-28T12:04:55.672Z,6.03
2022-11-28T12:10:04.384Z,6.06
2022-11-28T12:15:18.307Z,6.07
2022-11-28T12:20:38.858Z,6.10
2022-11-28T12:25:48.276Z,6.04
2022-11-28T12:31:04.020Z,6.12
2022-11-28T12:36:14.498Z,6.12
2022-11-28T12:41:33.169Z,6.13
2022-11-28T12:46:47.266Z,6.14
2022-11-28T12:52:04.008Z,6.16
2022-11-28T12:57:12.576Z,6.11
2022-11-28T13:02:28.678Z,6.08
2022-11-28T13:07:43.894Z,6.05
2022-11-28T13:12:56.960Z,5.95
2022-11-28T13:18:12.566Z,6.04
2022-11-28T13:23:21.639Z,6.06
2022-11-28T13:28:32.113Z,6.02
2022-11-28T13:33:49.278Z,5.94
2022-11-28T13:39:11.688Z,5.85
2022-11-28T13:44:22.498Z,5.77
2022-11-28T13:49:30.542Z,5.69
2022-11-28T13:54:46.304Z,5.63
2022-11-28T13:59:53.693Z,5.53
2022-11-28T14:04:57.849Z,5.48
2022-11-28T14:10:23.043Z,5.50
2022-11-28T14:15:32.347Z,5.53
2022-11-28T14:20:45.700Z,5.54
2022-11-28T14:25:50.940Z,5.56
2022-11-28T14:31:05.121Z,5.61
2022-11-28T14:36:35.931Z,5.62
2022-11-28T14:42:36.762Z,5.60
2022-11-28T14:47:42.494Z,5.64
2022-11-28T14:52:48.053Z,5.65
2022-11-28T14:57:57.439Z,5.63
2022-11-28T15:03:15.500Z,5.49
2022-11-28T15:08:41.455Z,5.39
2022-11-28T15:13:58.297Z,5.35
2022-11-28T15:19:07.427Z,5.26
2022-11-28T15:24:23.865Z,5.06
2022-11-28T15:29:29.185Z,5.03
2022-11-28T15:34:34.083Z,5.01
2022-11-28T15:39:40.663Z,5.04
2022-11-28T15:44:45.277Z,5.08
2022-11-28T15:50:00.021Z,5.03
2022-11-28T15:55:16.006Z,4.98
2022-11-28T16:00:21.879Z,5.01
2022-11-28T16:05:24.958Z,4.97
2022-11-28T16:10:33.727Z,5.01
2022-11-28T16:15:37.455Z,5.01
2022-11-28T16:20:40.276Z,4.98
2022-11-28T16:25:44.746Z,5.02
2022-11-28T16:30:51.087Z,4.93
2022-11-28T16:35:53.880Z,5.00
2022-11-28T16:41:01.744Z,4.92
2022-11-28T16:46:07.400Z,4.98
2022-11-28T16:51:35.251Z,4.98
2022-11-28T16:56:45.382Z,4.96
2022-11-28T17:01:49.517Z,4.98
2022-11-28T17:06:53.896Z,4.98
2022-11-28T17:12:04.215Z,4.96
2022-11-28T17:17:13.613Z,4.99
2022-11-28T17:22:19.307Z,4.91
2022-11-28T17:27:23.483Z,4.85
2022-11-28T17:32:26.280Z,4.88
2022-11-28T17:37:29.233Z,4.95
2022-11-28T17:42:33.380Z,4.91
2022-11-28T17:47:36.335Z,4.99
2022-11-28T17:52:39.080Z,5.04
2022-11-28T17:57:43.902Z,5.07
2022-11-28T18:02:47.501Z,5.02
2022-11-28T18:07:50.280Z,5.02
2022-11-28T18:12:55.431Z,5.05
2022-11-28T18:18:00.609Z,5.04
2022-11-28T18:23:03.650Z,4.99
2022-11-28T18:28:07.884Z,5.02
2022-11-28T18:33:11.079Z,5.02
2022-11-28T18:38:14.344Z,5.06
2022-11-28T18:43:18.469Z,4.96
2022-11-28T18:48:21.230Z,5.05
2022-11-28T18:53:24.104Z,5.05
2022-11-28T18:58:28.660Z,5.01
2022-11-28T19:03:31.481Z,5.09
2022-11-28T19:08:34.320Z,5.06
2022-11-28T19:13:39.237Z,5.06
2022-11-28T19:18:42.639Z,5.10
2022-11-28T19:23:47.092Z,5.08
2022-11-28T19:28:51.625Z,5.09
2022-11-28T19:34:00.846Z,5.13
2022-11-28T19:39:06.976Z,5.04
2022-11-28T19:44:12.669Z,5.05
2022-11-28T19:49:19.585Z,5.12
2022-11-28T19:54:22.761Z,5.13
2022-11-28T19:59:28.828Z,5.15
2022-11-28T20:04:31.997Z,5.20
2022-11-28T20:09:34.843Z,5.18
2022-11-28T20:14:39.410Z,5.19
2022-11-28T20:19:42.538Z,5.24
2022-11-28T20:24:45.584Z,5.27
2022-11-28T20:29:49.733Z,5.25
2022-11-28T20:34:52.475Z,5.23
2022-11-28T20:39:57.362Z,5.25
2022-11-28T20:45:01.511Z,5.26
2022-11-28T20:50:04.771Z,5.28
2022-11-28T20:55:09.071Z,5.28
2022-11-28T21:00:14.656Z,5.32
2022-11-28T21:05:17.696Z,5.36
2022-11-28T21:10:20.584Z,5.33
2022-11-28T21:15:25.372Z,5.32
2022-11-28T21:20:28.192Z,5.36
2022-11-28T21:25:31.005Z,5.36
2022-11-28T21:30:41.478Z,5.30
2022-11-28T21:35:44.237Z,5.32
2022-11-28T21:40:52.983Z,5.32
2022-11-28T21:46:02.267Z,5.37
2022-11-28T21:51:06.238Z,5.38
2022-11-28T21:56:11.081Z,5.30
2022-11-28T22:01:15.710Z,5.33
2022-11-28T22:06:21.703Z,5.35
2022-11-28T22:11:25.359Z,5.35
2022-11-28T22:16:30.354Z,5.38
2022-11-28T22:21:56.334Z,5.39
2022-11-28T22:26:59.792Z,5.38
2022-11-28T22:32:05.774Z,5.42
2022-11-28T22:37:09.119Z,5.42
2022-11-28T22:42:12.147Z,5.44
2022-11-28T22:47:16.800Z,5.46
2022-11-28T22:52:19.637Z,5.51
2022-11-28T22:57:22.484Z,5.53
2022-11-28T23:02:27.187Z,5.53
2022-11-28T23:07:30.437Z,5.54
2022-11-28T23:12:33.619Z,5.46
2022-11-28T23:17:38.111Z,5.46
2022-11-28T23:22:41.143Z,5.44
2022-11-28T23:27:43.955Z,5.40
2022-11-28T23:32:48.336Z,5.41
2022-11-28T23:37:51.115Z,5.44
2022-11-28T23:42:53.891Z,5.48
2022-11-28T23:47:58.042Z,5.47
2022-11-28T23:53:00.780Z,5.45
2022-11-28T23:58:03.515Z,5.49
